Time;durP1;ratioP1;P1;durP2;ratioP2;P2;SDS_P1;SDS_P2;PMS_P1;PMS_P2;Temp;Humidity;BMP_temperature;BMP_pressure;BME280_temperature;BME280_humidity;BME280_pressure;Samples;Min_cycle;Max_cycle;Signal;HPM_P1;HPM_P2
2023/04/22 00:01:17;;;;;;;7.50;6.63;;;11.10;91.40;;;;;;5035583;28;20106;-80
2023/04/22 00:03:43;;;;;;;8.95;7.75;;;11.10;91.10;;;;;;5035467;28;20497;-80
2023/04/22 00:06:09;;;;;;;9.65;8.65;;;11.10;91.00;;;;;;5051833;28;20040;-79
2023/04/22 00:08:35;;;;;;;7.75;6.93;;;11.20;91.00;;;;;;5019591;28;20452;-78
2023/04/22 00:11:01;;;;;;;10.73;7.95;;;11.10;90.60;;;;;;5053150;28;20045;-78
2023/04/22 00:13:27;;;;;;;10.70;8.10;;;11.10;90.60;;;;;;5055015;28;20046;-79
2023/04/22 00:15:53;;;;;;;8.98;8.07;;;11.10;90.50;;;;;;5038934;28;20040;-78
2023/04/22 00:18:19;;;;;;;8.93;7.95;;;11.10;90.40;;;;;;5072422;28;20048;-79
2023/04/22 00:20:45;;;;;;;10.65;9.07;;;11.00;90.40;;;;;;5055858;28;20131;-79
2023/04/22 00:23:12;;;;;;;9.90;8.65;;;11.00;90.40;;;;;;5055246;28;20131;-81
2023/04/22 00:25:39;;;;;;;9.38;8.30;;;11.00;90.30;;;;;;5071904;28;20036;-79
2023/04/22 00:28:05;;;;;;;10.73;8.45;;;11.00;90.50;;;;;;5065154;28;20500;-81
2023/04/22 00:30:30;;;;;;;10.95;8.80;;;10.90;90.60;;;;;;5018344;28;20516;-79
2023/04/22 00:32:56;;;;;;;11.25;8.88;;;10.90;90.70;;;;;;5019115;28;20041;-81
2023/04/22 00:35:22;;;;;;;12.77;9.68;;;10.90;90.80;;;;;;5035342;28;20048;-81
2023/04/22 00:37:48;;;;;;;10.02;8.77;;;10.80;90.60;;;;;;5035424;28;20079;-78
2023/04/22 00:40:13;;;;;;;13.27;10.07;;;10.70;90.60;;;;;;5035698;28;20041;-79
2023/04/22 00:42:42;;;;;;;9.70;8.68;;;10.70;90.80;;;;;;5018970;28;20451;-79
2023/04/22 00:45:13;;;;;;;10.68;8.65;;;10.60;90.80;;;;;;5034375;28;20056;-79
2023/04/22 00:47:40;;;;;;;10.23;8.43;;;10.60;90.70;;;;;;5019513;28;20119;-79
2023/04/22 00:50:07;;;;;;;11.70;9.13;;;10.50;90.70;;;;;;5002595;28;20033;-80
2023/04/22 00:52:32;;;;;;;12.65;9.75;;;10.50;90.70;;;;;;5018842;28;20044;-80
2023/04/22 00:54:59;;;;;;;9.25;8.18;;;10.40;90.70;;;;;;5018811;28;20044;-80
2023/04/22 00:57:25;;;;;;;9.95;8.38;;;10.30;90.70;;;;;;5051617;28;20053;-80
2023/04/22 00:59:52;;;;;;;10.07;7.85;;;10.30;90.80;;;;;;5035185;28;20071;-79
2023/04/22 01:02:18;;;;;;;8.20;7.40;;;10.30;90.80;;;;;;5018354;28;20138;-79
2023/04/22 01:04:44;;;;;;;8.13;7.13;;;10.20;90.60;;;;;;5055083;28;20041;-79
2023/04/22 01:07:10;;;;;;;7.65;6.85;;;10.10;90.50;;;;;;5071953;28;20128;-81
2023/04/22 01:09:37;;;;;;;8.27;7.00;;;10.00;90.50;;;;;;5038398;28;20132;-80
2023/04/22 01:12:03;;;;;;;10.60;7.78;;;9.90;90.60;;;;;;5055308;28;20123;-79
2023/04/22 01:14:28;;;;;;;18.58;8.27;;;9.80;90.80;;;;;;5054766;28;20469;-80
2023/04/22 01:16:54;;;;;;;13.88;10.70;;;9.80;90.70;;;;;;5038232;28;20040;-79
2023/04/22 01:19:20;;;;;;;11.23;10.02;;;9.80;91.20;;;;;;5042920;28;20047;-80
2023/04/22 01:21:48;;;;;;;14.65;9.50;;;9.70;91.30;;;;;;5035022;28;20128;-80
2023/04/22 01:24:14;;;;;;;9.93;8.88;;;9.70;91.20;;;;;;5018606;28;20088;-79
2023/04/22 01:26:39;;;;;;;11.90;10.32;;;9.60;91.30;;;;;;5035210;28;20079;-80
2023/04/22 01:29:05;;;;;;;9.23;8.32;;;9.60;91.30;;;;;;5018557;28;20037;-81
2023/04/22 01:31:32;;;;;;;10.70;9.48;;;9.60;91.20;;;;;;5035017;28;20163;-79
2023/04/22 01:33:58;;;;;;;12.77;10.65;;;9.50;91.30;;;;;;5002310;28;20401;-80
2023/04/22 01:36:24;;;;;;;11.50;10.40;;;9.50;91.20;;;;;;5034427;28;20048;-80
2023/04/22 01:38:50;;;;;;;12.07;10.77;;;9.50;91.20;;;;;;5051421;28;20044;-79
2023/04/22 01:41:16;;;;;;;14.30;11.75;;;9.50;91.20;;;;;;5018292;28;20163;-79
2023/04/22 01:43:43;;;;;;;11.48;10.27;;;9.50;91.20;;;;;;5021541;28;20048;-79
2023/04/22 01:46:09;;;;;;;11.70;10.27;;;9.40;91.20;;;;;;5054815;28;20053;-80
2023/04/22 01:48:35;;;;;;;13.18;11.63;;;9.40;91.20;;;;;;5038580;28;20051;-79
2023/04/22 01:51:02;;;;;;;12.25;10.95;;;9.40;91.30;;;;;;5038650;28;20048;-79
2023/04/22 01:53:27;;;;;;;14.82;11.30;;;9.30;91.30;;;;;;5038421;28;20045;-80
2023/04/22 01:55:53;;;;;;;14.93;12.23;;;9.40;91.30;;;;;;5038254;28;20045;-79
2023/04/22 01:58:19;;;;;;;11.75;10.40;;;9.30;91.30;;;;;;5038508;28;20041;-80
2023/04/22 02:00:46;;;;;;;13.27;10.80;;;9.30;91.20;;;;;;5054684;28;20041;-79
2023/04/22 02:03:12;;;;;;;13.10;11.63;;;9.30;91.30;;;;;;5021918;28;20075;-79
2023/04/22 02:05:39;;;;;;;11.98;10.65;;;9.20;91.30;;;;;;5038227;28;20450;-79
2023/04/22 02:08:05;;;;;;;11.98;10.77;;;9.20;91.20;;;;;;5054554;28;20124;-80
2023/04/22 02:10:31;;;;;;;13.52;12.07;;;9.10;91.20;;;;;;5058024;28;20044;-79
2023/04/22 02:12:58;;;;;;;15.00;11.57;;;9.10;91.30;;;;;;5041135;28;20044;-79
2023/04/22 02:15:24;;;;;;;15.20;11.95;;;9.10;91.30;;;;;;5041256;28;20044;-80
2023/04/22 02:17:49;;;;;;;12.32;11.02;;;9.10;91.80;;;;;;5041018;28;20051;-80
2023/04/22 02:20:15;;;;;;;16.00;12.32;;;9.00;91.90;;;;;;5074351;28;20036;-80
2023/04/22 02:22:42;;;;;;;13.40;12.00;;;9.10;91.80;;;;;;5057519;28;20045;-79
2023/04/22 02:25:09;;;;;;;15.07;11.32;;;9.00;91.70;;;;;;5045145;28;20155;-80
2023/04/22 02:27:35;;;;;;;11.40;10.23;;;9.00;91.60;;;;;;5038054;28;20041;-80
2023/04/22 02:30:02;;;;;;;20.13;15.73;;;9.00;91.60;;;;;;5021387;28;20777;-82
2023/04/22 02:32:28;;;;;;;14.18;12.65;;;9.00;91.80;;;;;;5038116;28;20436;-80
2023/04/22 02:34:54;;;;;;;15.60;13.10;;;9.00;91.90;;;;;;5037688;28;20103;-79
2023/04/22 02:37:21;;;;;;;23.75;14.57;;;9.00;92.50;;;;;;5037284;28;20044;-80
2023/04/22 02:39:48;;;;;;;18.60;13.73;;;9.00;92.30;;;;;;5037332;28;20073;-80
2023/04/22 02:42:14;;;;;;;15.35;12.55;;;9.00;92.30;;;;;;5037367;28;20041;-80
2023/04/22 02:44:40;;;;;;;19.02;14.25;;;9.00;92.20;;;;;;5020772;28;20070;-80
2023/04/22 02:47:06;;;;;;;30.85;14.38;;;8.90;92.30;;;;;;5037225;28;20092;-79
2023/04/22 02:49:32;;;;;;;17.65;12.73;;;8.90;92.20;;;;;;5020871;28;20052;-81
2023/04/22 02:51:57;;;;;;;52.22;13.60;;;8.80;92.10;;;;;;5037538;28;20476;-79
2023/04/22 02:54:23;;;;;;;54.05;13.73;;;8.80;92.00;;;;;;5020751;28;20055;-80
2023/04/22 02:56:49;;;;;;;54.38;12.82;;;8.80;92.10;;;;;;5037177;28;20037;-80
2023/04/22 02:59:15;;;;;;;171.18;19.88;;;8.70;92.20;;;;;;5032103;28;20116;-79
2023/04/22 03:01:41;;;;;;;81.43;12.48;;;8.70;92.20;;;;;;5020804;28;20048;-79
2023/04/22 03:04:07;;;;;;;116.75;14.23;;;8.60;92.20;;;;;;5053360;28;20041;-79
2023/04/22 03:06:32;;;;;;;117.15;14.68;;;8.70;92.30;;;;;;5053734;28;20045;-81
2023/04/22 03:08:58;;;;;;;144.38;14.75;;;8.60;92.30;;;;;;5037112;28;20473;-79
2023/04/22 03:11:24;;;;;;;108.20;13.23;;;8.60;92.30;;;;;;5020727;28;20041;-80
2023/04/22 03:13:50;;;;;;;40.83;9.73;;;8.60;92.20;;;;;;5004035;28;20048;-80
2023/04/22 03:16:16;;;;;;;165.52;16.27;;;8.50;92.00;;;;;;5049012;28;20049;-80
2023/04/22 03:18:42;;;;;;;76.63;13.23;;;8.50;92.00;;;;;;5020532;28;20358;-80
2023/04/22 03:21:08;;;;;;;26.98;10.07;;;8.40;92.00;;;;;;5036800;28;20049;-81
2023/04/22 03:23:34;;;;;;;45.05;11.85;;;8.40;92.10;;;;;;5036436;28;20033;-80
2023/04/22 03:26:00;;;;;;;27.67;10.35;;;8.30;92.10;;;;;;5036221;28;20124;-80
2023/04/22 03:28:25;;;;;;;32.38;11.10;;;8.40;92.20;;;;;;5036418;28;20171;-80
2023/04/22 03:30:51;;;;;;;13.57;9.25;;;8.40;92.20;;;;;;5036052;28;20036;-81
2023/04/22 03:33:17;;;;;;;13.23;11.88;;;8.30;92.10;;;;;;5052014;28;20087;-81
2023/04/22 03:35:43;;;;;;;10.68;9.65;;;8.30;92.20;;;;;;5039206;28;20481;-80
2023/04/22 03:38:08;;;;;;;31.13;24.58;;;8.30;92.30;;;;;;5039296;28;20036;-80
2023/04/22 03:40:34;;;;;;;16.65;14.95;;;8.30;92.40;;;;;;5023088;28;20040;-80
2023/04/22 03:43:00;;;;;;;21.08;16.38;;;8.40;92.30;;;;;;5055862;28;20598;-80
2023/04/22 03:45:26;;;;;;;13.57;10.77;;;8.40;92.40;;;;;;5022373;28;20098;-80
2023/04/22 03:47:51;;;;;;;13.40;11.75;;;8.40;92.40;;;;;;5055684;28;20101;-80
2023/04/22 03:50:17;;;;;;;15.45;12.93;;;8.40;92.40;;;;;;5055061;28;20044;-80
2023/04/22 03:52:43;;;;;;;17.73;14.50;;;8.40;92.40;;;;;;5055931;28;20157;-80
2023/04/22 03:55:09;;;;;;;19.40;15.43;;;8.40;92.30;;;;;;5072166;28;20051;-80
2023/04/22 03:57:35;;;;;;;21.02;17.77;;;8.40;92.20;;;;;;5038996;28;20049;-81
2023/04/22 04:00:00;;;;;;;18.42;14.90;;;8.40;92.10;;;;;;5039002;28;20040;-80
2023/04/22 04:02:26;;;;;;;14.45;11.77;;;8.40;91.90;;;;;;5038792;28;20129;-80
2023/04/22 04:04:52;;;;;;;13.45;11.93;;;8.30;92.10;;;;;;5071169;28;20415;-79
2023/04/22 04:07:18;;;;;;;13.85;12.15;;;8.20;92.30;;;;;;5070657;28;20071;-80
2023/04/22 04:09:43;;;;;;;12.15;9.98;;;8.30;92.30;;;;;;5055561;28;20045;-80
2023/04/22 04:12:09;;;;;;;35.00;11.73;;;8.20;92.20;;;;;;5055026;28;20048;-81
2023/04/22 04:14:35;;;;;;;67.90;12.93;;;8.20;92.00;;;;;;5054894;28;20442;-80
2023/04/22 04:17:02;;;;;;;24.50;10.52;;;8.20;92.00;;;;;;5054318;28;20037;-82
2023/04/22 04:19:28;;;;;;;28.60;10.77;;;8.10;92.10;;;;;;5071011;28;20514;-80
2023/04/22 04:21:54;;;;;;;33.78;11.27;;;8.10;92.10;;;;;;5054498;28;20048;-79
2023/04/22 04:24:20;;;;;;;45.47;11.02;;;8.10;91.80;;;;;;5053621;28;20047;-80
2023/04/22 04:26:47;;;;;;;18.08;9.68;;;8.00;91.90;;;;;;5055085;28;20037;-80
2023/04/22 04:29:13;;;;;;;14.48;9.70;;;8.00;92.10;;;;;;5055269;28;20095;-80
2023/04/22 04:31:40;;;;;;;12.57;9.27;;;7.90;92.00;;;;;;5054896;28;20558;-80
2023/04/22 04:34:06;;;;;;;43.47;7.18;;;7.90;92.00;;;;;;5054892;28;20037;-80
2023/04/22 04:36:32;;;;;;;27.42;6.68;;;7.80;92.00;;;;;;5021959;28;20326;-80
2023/04/22 04:38:58;;;;;;;8.55;5.78;;;7.70;92.00;;;;;;5038204;28;20048;-80
2023/04/22 04:41:25;;;;;;;6.93;6.15;;;7.60;92.00;;;;;;5052288;28;20063;-80
2023/04/22 04:43:51;;;;;;;10.32;6.90;;;7.60;92.00;;;;;;5035104;28;20063;-80
2023/04/22 04:46:18;;;;;;;54.60;11.10;;;7.70;92.10;;;;;;5034676;28;20053;-80
2023/04/22 04:48:45;;;;;;;200.95;19.15;;;7.70;92.10;;;;;;5035267;28;20396;-80
2023/04/22 04:51:11;;;;;;;130.88;14.95;;;7.70;92.20;;;;;;5035087;28;20185;-80
2023/04/22 04:53:37;;;;;;;236.75;21.30;;;7.70;92.80;;;;;;5018682;28;20041;-79
2023/04/22 04:56:03;;;;;;;360.20;28.48;;;7.70;92.90;;;;;;5018254;28;20477;-80
2023/04/22 04:58:28;;;;;;;379.38;32.10;;;7.80;93.50;;;;;;5067298;28;20045;-81
2023/04/22 05:00:54;;;;;;;170.45;15.98;;;7.80;93.90;;;;;;5038080;28;20123;-80
2023/04/22 05:03:20;;;;;;;117.07;13.95;;;7.80;94.10;;;;;;5038269;28;20037;-80
2023/04/22 05:05:47;;;;;;;185.38;19.40;;;7.70;94.10;;;;;;5071139;28;20089;-80
2023/04/22 05:08:13;;;;;;;91.18;14.95;;;7.70;94.20;;;;;;5038181;28;20492;-80
2023/04/22 05:10:39;;;;;;;132.25;17.48;;;7.70;94.20;;;;;;5037865;28;20044;-80
2023/04/22 05:13:05;;;;;;;92.25;17.13;;;7.70;94.10;;;;;;5021201;28;20049;-81
2023/04/22 05:15:30;;;;;;;18.33;11.13;;;7.70;94.20;;;;;;5021516;28;20492;-80
2023/04/22 05:17:56;;;;;;;37.88;11.63;;;7.70;94.30;;;;;;5041815;28;20130;-81
2023/04/22 05:20:22;;;;;;;78.82;15.35;;;7.70;94.30;;;;;;5041872;28;20389;-80
2023/04/22 05:22:47;;;;;;;24.50;11.30;;;7.70;94.60;;;;;;5058427;28;20036;-80
2023/04/22 05:25:13;;;;;;;13.88;10.02;;;7.70;94.70;;;;;;5025053;28;20064;-80
2023/04/22 05:27:40;;;;;;;25.38;10.95;;;7.70;94.60;;;;;;5058298;28;20078;-79
2023/04/22 05:30:06;;;;;;;10.45;8.75;;;7.70;94.70;;;;;;5037628;28;20284;-79
2023/04/22 05:32:32;;;;;;;27.48;11.70;;;7.70;94.30;;;;;;5022065;28;20037;-80
2023/04/22 05:34:58;;;;;;;15.43;11.95;;;7.70;94.30;;;;;;5038114;28;20036;-80
2023/04/22 05:37:24;;;;;;;25.80;13.75;;;7.80;94.40;;;;;;5038554;28;20132;-80
2023/04/22 05:39:50;;;;;;;12.73;11.43;;;7.80;94.10;;;;;;5038187;28;20404;-80
2023/04/22 05:42:15;;;;;;;17.70;13.82;;;7.80;94.10;;;;;;5038113;28;20099;-80
2023/04/22 05:44:41;;;;;;;14.10;12.20;;;7.90;94.40;;;;;;5021374;28;20041;-80
2023/04/22 05:47:07;;;;;;;14.48;12.57;;;8.00;94.40;;;;;;5021614;28;20053;-80
2023/04/22 05:49:32;;;;;;;17.92;13.07;;;8.00;94.50;;;;;;5021598;28;20041;-80
2023/04/22 05:51:58;;;;;;;17.67;12.70;;;8.10;94.60;;;;;;5038005;28;20037;-80
2023/04/22 05:54:24;;;;;;;15.13;12.93;;;8.10;94.80;;;;;;5021591;28;20098;-81
2023/04/22 05:56:50;;;;;;;16.52;13.60;;;8.10;94.80;;;;;;5021523;28;20115;-80
2023/04/22 05:59:15;;;;;;;18.00;14.65;;;8.20;95.00;;;;;;5037860;28;20127;-80
2023/04/22 06:01:41;;;;;;;19.23;15.52;;;8.20;95.20;;;;;;5039625;28;20098;-80
2023/04/22 06:04:08;;;;;;;17.75;14.77;;;8.30;95.40;;;;;;5024540;28;20046;-81
2023/04/22 06:06:34;;;;;;;13.35;11.90;;;8.40;95.20;;;;;;5041553;28;20435;-81
2023/04/22 06:09:00;;;;;;;20.65;16.00;;;8.50;95.00;;;;;;5041028;28;20070;-80
2023/04/22 06:11:27;;;;;;;19.15;16.45;;;8.50;95.20;;;;;;5074201;28;20488;-80
2023/04/22 06:13:53;;;;;;;17.10;14.75;;;8.60;95.20;;;;;;5057551;28;20044;-80
2023/04/22 06:16:18;;;;;;;20.40;16.08;;;8.60;95.00;;;;;;5036517;28;20048;-80
2023/04/22 06:18:44;;;;;;;18.50;16.25;;;8.80;95.80;;;;;;5037637;28;20041;-80
2023/04/22 06:21:10;;;;;;;21.48;17.58;;;8.80;95.60;;;;;;5037661;28;20036;-80
2023/04/22 06:23:36;;;;;;;17.35;15.05;;;8.90;95.80;;;;;;5054049;28;20041;-80
2023/04/22 06:26:02;;;;;;;16.48;14.48;;;9.00;95.60;;;;;;5054041;28;20103;-80
2023/04/22 06:28:28;;;;;;;19.25;16.80;;;9.00;95.60;;;;;;5036511;28;20033;-80
2023/04/22 06:30:53;;;;;;;18.27;15.82;;;9.00;96.00;;;;;;5037209;28;20059;-80
2023/04/22 06:33:19;;;;;;;18.33;15.35;;;9.00;96.20;;;;;;5036313;28;20087;-80
2023/04/22 06:35:45;;;;;;;15.60;13.32;;;9.10;96.30;;;;;;5037195;28;20037;-82
2023/04/22 06:38:11;;;;;;;17.73;15.73;;;9.10;96.20;;;;;;5021085;28;20111;-82
2023/04/22 06:40:36;;;;;;;16.80;14.88;;;9.20;95.90;;;;;;5037147;28;20447;-81
2023/04/22 06:43:02;;;;;;;16.95;14.57;;;9.10;96.00;;;;;;5037156;28;20037;-80
2023/04/22 06:45:28;;;;;;;17.45;14.57;;;9.20;96.10;;;;;;5020279;28;20056;-80
2023/04/22 06:47:54;;;;;;;13.98;12.50;;;9.20;95.90;;;;;;5053995;28;20425;-81
2023/04/22 06:50:20;;;;;;;18.52;15.95;;;9.20;95.80;;;;;;5038486;28;20052;-79
2023/04/22 06:52:46;;;;;;;20.23;17.02;;;9.30;96.00;;;;;;5056881;28;20186;-81
2023/04/22 06:55:11;;;;;;;20.23;17.52;;;9.30;95.90;;;;;;5073612;28;20048;-80
2023/04/22 06:57:37;;;;;;;17.63;15.20;;;9.40;96.00;;;;;;5030221;28;20076;-80
2023/04/22 07:00:10;;;;;;;19.48;17.05;;;9.50;95.80;;;;;;5083309;28;20043;-80
2023/04/22 07:02:36;;;;;;;20.50;16.88;;;9.60;96.00;;;;;;5099815;28;20070;-81
2023/04/22 07:05:01;;;;;;;19.15;16.63;;;9.60;95.90;;;;;;5078633;28;20041;-81
2023/04/22 07:07:27;;;;;;;19.95;17.70;;;9.70;95.70;;;;;;5062726;28;20060;-81
2023/04/22 07:09:53;;;;;;;21.60;17.80;;;9.70;95.60;;;;;;5056736;28;20053;-81
2023/04/22 07:12:19;;;;;;;19.20;17.13;;;9.80;95.40;;;;;;5038086;28;20059;-81
2023/04/22 07:14:45;;;;;;;19.17;16.65;;;9.80;95.40;;;;;;5021436;28;20040;-80
2023/04/22 07:17:11;;;;;;;20.20;16.75;;;10.00;95.40;;;;;;5027804;28;20119;-80
2023/04/22 07:19:37;;;;;;;22.40;16.90;;;10.00;95.40;;;;;;5042739;28;20106;-81
2023/04/22 07:22:03;;;;;;;20.13;16.50;;;10.10;95.20;;;;;;5039854;28;20044;-81
2023/04/22 07:24:29;;;;;;;17.75;15.85;;;10.10;94.90;;;;;;5024058;28;20044;-80
2023/04/22 07:26:56;;;;;;;19.00;16.30;;;10.20;94.80;;;;;;5040069;28;20040;-80
2023/04/22 07:29:22;;;;;;;19.15;15.82;;;10.30;94.70;;;;;;5056359;28;20127;-81
2023/04/22 07:31:47;;;;;;;19.15;15.45;;;10.30;94.40;;;;;;5056412;28;20071;-80
2023/04/22 07:34:13;;;;;;;16.20;14.45;;;10.30;94.50;;;;;;5039807;28;20047;-81
2023/04/22 07:36:39;;;;;;;16.02;14.32;;;10.50;94.20;;;;;;5056501;28;20089;-81
2023/04/22 07:39:05;;;;;;;17.55;13.90;;;10.50;94.10;;;;;;5035940;28;20032;-81
2023/04/22 07:41:31;;;;;;;15.00;13.43;;;10.60;94.10;;;;;;5036375;28;20097;-80
2023/04/22 07:43:57;;;;;;;16.17;14.52;;;10.60;94.00;;;;;;5036080;28;20492;-81
2023/04/22 07:46:22;;;;;;;18.25;15.73;;;10.70;93.80;;;;;;5035776;28;20057;-81
2023/04/22 07:48:48;;;;;;;18.83;16.05;;;10.80;93.80;;;;;;5036539;28;20041;-81
2023/04/22 07:51:14;;;;;;;15.85;13.98;;;10.80;93.70;;;;;;5036061;28;20037;-80
2023/04/22 07:53:40;;;;;;;18.23;16.10;;;10.80;93.60;;;;;;5003434;28;20127;-80
2023/04/22 07:56:05;;;;;;;16.23;14.52;;;11.00;93.60;;;;;;5002984;28;20041;-81
2023/04/22 07:58:31;;;;;;;18.02;16.13;;;11.00;93.10;;;;;;5036080;28;20049;-81
2023/04/22 08:00:57;;;;;;;19.10;17.02;;;11.00;93.30;;;;;;5035816;28;20498;-82
2023/04/22 08:03:22;;;;;;;17.80;15.90;;;11.10;93.30;;;;;;5036006;28;20037;-81
2023/04/22 08:05:48;;;;;;;17.13;15.30;;;11.30;93.30;;;;;;5019531;28;20037;-81
2023/04/22 08:08:14;;;;;;;17.25;15.45;;;11.40;93.10;;;;;;5019163;28;20516;-81
2023/04/22 08:10:40;;;;;;;22.13;15.07;;;11.50;93.10;;;;;;5035801;28;20039;-81
2023/04/22 08:13:05;;;;;;;18.40;15.02;;;11.60;92.80;;;;;;5049002;28;20071;-81
2023/04/22 08:15:31;;;;;;;17.90;15.05;;;11.70;92.50;;;;;;5055445;28;20511;-80
2023/04/22 08:17:57;;;;;;;18.25;15.98;;;11.70;91.80;;;;;;5055627;28;20037;-80
2023/04/22 08:20:24;;;;;;;14.77;12.98;;;11.90;92.10;;;;;;5055710;28;20435;-80
2023/04/22 08:22:51;;;;;;;17.02;15.05;;;12.00;92.10;;;;;;5055491;28;20094;-81
2023/04/22 08:25:17;;;;;;;18.23;14.70;;;12.10;91.70;;;;;;5042325;28;20508;-80
2023/04/22 08:27:43;;;;;;;18.33;16.05;;;12.20;91.70;;;;;;5035411;28;20102;-80
2023/04/22 08:30:09;;;;;;;19.75;16.60;;;12.20;91.40;;;;;;5035457;28;20041;-81
2023/04/22 08:32:34;;;;;;;15.70;13.98;;;12.40;91.40;;;;;;5002892;28;20040;-80
2023/04/22 08:35:00;;;;;;;16.73;14.93;;;12.50;91.20;;;;;;5051865;28;20051;-81
2023/04/22 08:37:26;;;;;;;17.63;15.80;;;12.50;90.50;;;;;;5035105;28;20036;-82
2023/04/22 08:39:52;;;;;;;18.35;16.45;;;12.50;90.40;;;;;;5035346;28;20132;-80
2023/04/22 08:42:20;;;;;;;20.08;16.60;;;12.60;90.60;;;;;;5051179;28;20071;-80
2023/04/22 08:44:47;;;;;;;16.50;14.75;;;12.80;90.60;;;;;;5035027;28;20045;-82
2023/04/22 08:47:14;;;;;;;17.27;15.55;;;12.90;89.90;;;;;;5035550;28;20048;-81
2023/04/22 08:49:41;;;;;;;19.33;15.43;;;13.00;89.60;;;;;;5018887;28;20080;-82
2023/04/22 08:52:08;;;;;;;16.92;15.13;;;13.20;89.50;;;;;;5018524;28;20393;-82
2023/04/22 08:54:36;;;;;;;17.42;15.50;;;13.40;89.00;;;;;;5018656;28;20037;-81
2023/04/22 08:57:03;;;;;;;17.65;15.75;;;13.50;88.90;;;;;;5035107;28;20060;-82
2023/04/22 08:59:30;;;;;;;19.10;16.50;;;13.60;88.80;;;;;;5035918;28;20425;-80
2023/04/22 09:01:57;;;;;;;17.83;15.80;;;13.70;88.40;;;;;;5051449;28;20098;-80
2023/04/22 09:04:23;;;;;;;17.45;15.43;;;13.90;87.60;;;;;;5035167;28;20095;-81
2023/04/22 09:06:49;;;;;;;20.00;16.27;;;14.00;86.90;;;;;;5034740;28;20083;-81
2023/04/22 09:09:16;;;;;;;18.73;16.02;;;14.20;87.40;;;;;;5018491;28;20127;-81
2023/04/22 09:11:42;;;;;;;18.63;16.20;;;14.10;84.70;;;;;;5051287;28;20049;-81
2023/04/22 09:14:07;;;;;;;19.88;16.08;;;14.20;85.90;;;;;;5018449;28;20064;-80
2023/04/22 09:16:41;;;;;;;18.67;16.65;;;14.40;86.50;;;;;;5034866;28;20123;-82
2023/04/22 09:19:11;;;;;;;17.55;15.45;;;14.50;85.90;;;;;;5071639;28;20392;-81
2023/04/22 09:21:38;;;;;;;18.15;16.05;;;14.50;85.60;;;;;;5054795;28;20485;-80
2023/04/22 09:24:07;;;;;;;20.95;17.23;;;14.50;85.30;;;;;;5071459;28;20042;-81
2023/04/22 09:26:33;;;;;;;21.90;17.58;;;14.50;84.70;;;;;;5054439;28;20045;-81
2023/04/22 09:28:59;;;;;;;20.17;17.65;;;14.50;85.10;;;;;;5071268;28;20139;-81
2023/04/22 09:31:27;;;;;;;19.70;17.60;;;14.50;84.00;;;;;;5054608;28;20043;-81
2023/04/22 09:33:59;;;;;;;24.70;18.40;;;14.60;83.80;;;;;;5051653;28;20132;-82
2023/04/22 09:36:27;;;;;;;22.55;19.02;;;14.70;84.20;;;;;;5051203;28;20045;-80
2023/04/22 09:38:54;;;;;;;21.67;18.23;;;14.70;83.30;;;;;;5034786;28;20041;-81
2023/04/22 09:41:31;;;;;;;18.63;15.80;;;14.90;82.20;;;;;;5034366;28;20049;-80
2023/04/22 09:43:58;;;;;;;19.05;17.05;;;15.10;82.70;;;;;;5034548;28;20447;-81
2023/04/22 09:46:26;;;;;;;20.35;17.83;;;15.20;82.10;;;;;;5034347;28;20099;-81
2023/04/22 09:48:57;;;;;;;18.40;16.33;;;15.20;81.00;;;;;;5050681;28;20128;-80
2023/04/22 09:51:23;;;;;;;18.48;16.38;;;15.30;81.60;;;;;;5034450;28;20048;-81
2023/04/22 09:54:00;;;;;;;16.50;14.82;;;15.50;81.60;;;;;;5034438;28;20083;-80
2023/04/22 09:56:52;;;;;;;18.05;16.15;;;15.50;79.40;;;;;;5034362;28;20037;-81
2023/04/22 09:59:21;;;;;;;17.52;15.75;;;15.60;80.90;;;;;;5050896;28;20555;-82
2023/04/22 10:01:48;;;;;;;18.98;16.33;;;15.70;80.40;;;;;;5051127;28;20048;-82
2023/04/22 10:04:15;;;;;;;15.57;13.52;;;15.90;81.10;;;;;;5004071;28;20041;-81
2023/04/22 10:06:41;;;;;;;17.95;15.18;;;15.90;78.90;;;;;;5044269;28;20472;-80
2023/04/22 10:09:08;;;;;;;16.13;14.43;;;16.00;79.10;;;;;;5074434;28;20045;-81
2023/04/22 10:11:34;;;;;;;17.35;15.57;;;16.00;78.00;;;;;;5057837;28;20040;-81
2023/04/22 10:14:00;;;;;;;16.80;14.40;;;16.00;79.10;;;;;;5057794;28;20097;-81
2023/04/22 10:16:27;;;;;;;17.63;15.60;;;16.10;78.90;;;;;;5041246;28;20086;-81
2023/04/22 10:18:55;;;;;;;17.48;15.73;;;16.20;78.20;;;;;;5041253;28;20040;-81
2023/04/22 10:21:23;;;;;;;15.88;14.23;;;16.40;79.50;;;;;;5057624;28;20041;-80
2023/04/22 10:23:49;;;;;;;15.88;14.18;;;16.30;77.90;;;;;;5067594;28;20037;-81
2023/04/22 10:26:37;;;;;;;17.45;15.65;;;16.40;78.10;;;;;;5020707;28;20060;-81
2023/04/22 10:29:06;;;;;;;17.08;15.18;;;16.50;77.30;;;;;;5037269;28;20033;-81
2023/04/22 10:31:32;;;;;;;17.30;15.50;;;16.50;76.10;;;;;;5037590;28;20063;-81
2023/04/22 10:34:14;;;;;;;16.00;14.32;;;16.70;77.60;;;;;;5037500;28;20508;-81
2023/04/22 10:37:11;;;;;;;15.75;14.15;;;16.70;74.20;;;;;;5020899;28;20477;-80
2023/04/22 10:39:38;;;;;;;15.95;14.35;;;16.80;75.30;;;;;;5053776;28;20037;-81
2023/04/22 10:42:10;;;;;;;16.50;14.80;;;16.80;75.90;;;;;;5055091;28;20492;-81
2023/04/22 10:44:51;;;;;;;16.40;14.40;;;16.70;76.00;;;;;;5040308;28;20089;-81
2023/04/22 10:47:34;;;;;;;16.33;14.73;;;16.70;76.10;;;;;;5073691;28;20072;-81
2023/04/22 10:50:18;;;;;;;18.80;15.73;;;16.90;76.60;;;;;;5073907;28;20365;-81
2023/04/22 10:53:48;;;;;;;15.77;14.18;;;17.00;76.30;;;;;;5057098;28;20047;-81
2023/04/22 10:56:17;;;;;;;15.55;14.05;;;17.40;76.70;;;;;;5015462;28;20044;-81
2023/04/22 10:58:42;;;;;;;15.45;13.85;;;17.60;74.20;;;;;;5036850;28;20040;-81
2023/04/22 11:01:14;;;;;;;14.82;13.13;;;17.90;75.10;;;;;;5020187;28;20040;-81
2023/04/22 11:03:39;;;;;;;15.65;13.93;;;17.90;73.60;;;;;;5036806;28;20358;-81
2023/04/22 11:06:17;;;;;;;16.13;14.45;;;17.90;73.40;;;;;;5053120;28;20051;-81
2023/04/22 11:08:47;;;;;;;16.20;14.52;;;17.90;72.80;;;;;;5036622;28;20106;-81
2023/04/22 11:11:15;;;;;;;16.23;14.57;;;18.00;74.00;;;;;;5036454;28;20037;-81
2023/04/22 11:13:44;;;;;;;15.90;14.30;;;18.10;74.70;;;;;;5069735;28;20044;-81
2023/04/22 11:16:10;;;;;;;17.45;14.07;;;18.40;74.90;;;;;;5056818;28;20141;-81
2023/04/22 11:18:36;;;;;;;16.30;14.57;;;18.50;71.90;;;;;;5073138;28;20095;-80
2023/04/22 11:21:05;;;;;;;15.32;13.73;;;18.60;73.60;;;;;;5073065;28;20123;-80
2023/04/22 11:23:31;;;;;;;16.70;15.10;;;18.60;71.20;;;;;;5056134;28;20043;-80
2023/04/22 11:25:59;;;;;;;15.73;14.15;;;18.90;72.60;;;;;;5056308;28;20049;-80
2023/04/22 11:28:25;;;;;;;18.23;16.33;;;19.00;73.00;;;;;;5072777;28;20484;-81
2023/04/22 11:30:51;;;;;;;16.65;13.52;;;19.00;73.10;;;;;;5055229;28;20044;-80
2023/04/22 11:33:18;;;;;;;15.27;13.68;;;18.90;71.30;;;;;;5039315;28;20090;-80
2023/04/22 11:35:44;;;;;;;14.68;13.27;;;18.80;72.10;;;;;;5056016;28;20446;-80
2023/04/22 11:38:09;;;;;;;15.98;14.43;;;18.90;72.40;;;;;;5056157;28;20040;-81
2023/04/22 11:40:38;;;;;;;13.60;12.13;;;18.80;71.50;;;;;;5056345;28;20094;-80
2023/04/22 11:43:06;;;;;;;14.13;12.82;;;18.80;71.20;;;;;;5056031;28;20537;-81
2023/04/22 11:45:35;;;;;;;16.02;14.32;;;18.90;69.40;;;;;;5055548;28;20508;-80
2023/04/22 11:48:03;;;;;;;13.48;11.50;;;19.00;71.40;;;;;;5042575;28;20121;-81
2023/04/22 11:50:31;;;;;;;16.00;14.32;;;19.20;70.70;;;;;;5019883;28;20045;-81
2023/04/22 11:52:58;;;;;;;14.43;12.90;;;19.40;71.40;;;;;;5052680;28;20083;-81
2023/04/22 11:55:32;;;;;;;15.70;13.75;;;19.40;71.40;;;;;;5052416;28;20063;-81
2023/04/22 11:58:08;;;;;;;15.10;13.70;;;19.40;72.00;;;;;;5052659;28;20053;-82
2023/04/22 12:00:55;;;;;;;15.30;13.60;;;19.30;70.50;;;;;;5019558;28;20045;-81
2023/04/22 12:03:23;;;;;;;14.88;13.38;;;19.30;70.40;;;;;;5044264;28;20045;-81
2023/04/22 12:05:57;;;;;;;14.15;12.57;;;19.20;70.80;;;;;;5055366;28;20040;-81
2023/04/22 12:08:25;;;;;;;14.00;12.52;;;19.10;69.60;;;;;;5055744;28;20511;-80
2023/04/22 12:10:55;;;;;;;14.30;12.90;;;19.00;69.40;;;;;;5055789;28;20186;-81
2023/04/22 12:13:24;;;;;;;14.55;13.10;;;19.10;70.20;;;;;;5072215;28;20049;-81
2023/04/22 12:15:58;;;;;;;14.57;13.07;;;19.10;70.90;;;;;;5055208;28;20060;-80
2023/04/22 12:18:35;;;;;;;13.38;12.07;;;19.10;70.50;;;;;;5071911;28;20085;-81
2023/04/22 12:21:06;;;;;;;15.18;12.98;;;18.90;67.40;;;;;;5034863;28;20567;-81
2023/04/22 12:23:45;;;;;;;14.18;12.77;;;18.90;69.30;;;;;;5051850;28;20071;-81
2023/04/22 12:26:12;;;;;;;14.55;12.55;;;18.70;69.10;;;;;;5034884;28;20114;-81
2023/04/22 12:28:39;;;;;;;14.35;12.85;;;18.60;70.20;;;;;;5035377;28;20049;-80
2023/04/22 12:31:05;;;;;;;14.10;12.70;;;18.60;70.20;;;;;;5035393;28;20116;-82
2023/04/22 12:33:31;;;;;;;14.02;12.63;;;18.60;70.00;;;;;;5035467;28;20068;-80